createdAt,value
2023-04-25T00:02:03.609Z,99547.22
2023-04-25T00:07:02.517Z,99551.88
2023-04-25T00:11:58.869Z,99559.94
2023-04-25T00:16:56.024Z,99554.84
2023-04-25T00:21:52.418Z,99562.69
2023-04-25T00:26:48.746Z,99561.69
2023-04-25T00:31:45.423Z,99560.44
2023-04-25T00:36:41.842Z,99569.63
2023-04-25T00:41:38.232Z,99568.69
2023-04-25T00:46:35.968Z,99562.66
2023-04-25T00:51:33.768Z,99561.09
2023-04-25T00:56:30.480Z,99564.44
2023-04-25T01:01:27.425Z,99562.56
2023-04-25T01:06:24.020Z,99555.59
2023-04-25T01:11:20.892Z,99565.91
2023-04-25T01:16:17.349Z,99566.88
2023-04-25T01:21:14.398Z,99571.41
2023-04-25T01:26:12.354Z,99566.47
2023-04-25T01:31:08.838Z,99571.00
2023-04-25T01:36:05.641Z,99580.50
2023-04-25T01:41:02.300Z,99588.94
2023-04-25T01:45:59.249Z,99588.94
2023-04-25T01:50:55.612Z,99595.28
2023-04-25T01:55:51.942Z,99608.47
2023-04-25T02:00:48.254Z,99619.03
2023-04-25T02:05:44.753Z,99637.50
2023-04-25T02:10:41.210Z,99645.31
2023-04-25T02:15:38.089Z,99661.84
2023-04-25T02:20:35.072Z,99666.91
2023-04-25T02:25:31.427Z,99679.91
2023-04-25T02:30:28.214Z,99679.56
2023-04-25T02:35:24.682Z,99693.41
2023-04-25T02:40:21.388Z,99689.72
2023-04-25T02:45:55.624Z,99708.41
2023-04-25T02:50:51.968Z,99711.56
2023-04-25T02:55:48.365Z,99704.81
2023-04-25T03:00:44.785Z,99709.94
2023-04-25T03:05:41.162Z,99700.44
2023-04-25T03:10:37.508Z,99694.63
2023-04-25T03:15:34.105Z,99700.75
2023-04-25T03:20:31.109Z,99689.69
2023-04-25T03:25:27.508Z,99673.34
2023-04-25T03:30:23.897Z,99693.38
2023-04-25T03:35:20.368Z,99688.75
2023-04-25T03:40:16.904Z,99701.84
2023-04-25T03:45:13.268Z,99705.44
2023-04-25T03:50:10.502Z,99700.16
2023-04-25T03:55:07.564Z,99710.69
2023-04-25T04:00:05.124Z,99722.94
2023-04-25T04:05:02.060Z,99723.97
2023-04-25T04:09:58.518Z,99725.88
2023-04-25T04:14:54.833Z,99739.16
2023-04-25T04:19:51.156Z,99745.50
2023-04-25T04:24:47.627Z,99746.53
2023-04-25T04:29:44.445Z,99742.94
2023-04-25T04:34:42.133Z,99750.78
2023-04-25T04:39:38.564Z,99755.19
2023-04-25T04:44:35.352Z,99763.84
2023-04-25T04:49:31.785Z,99774.19
2023-04-25T04:54:28.142Z,99781.13
2023-04-25T04:59:24.516Z,99779.47
2023-04-25T05:04:21.061Z,99784.94
2023-04-25T05:09:17.634Z,99784.28
2023-04-25T05:14:14.007Z,99792.66
2023-04-25T05:19:10.742Z,99795.31
2023-04-25T05:24:07.214Z,99791.50
2023-04-25T05:29:03.564Z,99800.28
2023-04-25T05:34:00.249Z,99804.19
2023-04-25T05:38:56.587Z,99800.19
2023-04-25T05:43:54.760Z,99806.31
2023-04-25T05:48:52.607Z,99798.19
2023-04-25T05:53:49.191Z,99813.09
2023-04-25T05:58:45.928Z,99828.19
2023-04-25T06:03:44.153Z,99819.00
2023-04-25T06:08:41.430Z,99818.16
2023-04-25T06:13:37.788Z,99816.38
2023-04-25T06:18:34.161Z,99817.56
2023-04-25T06:23:30.561Z,99816.50
2023-04-25T06:28:27.044Z,99824.44
2023-04-25T06:33:25.219Z,99821.69
2023-04-25T06:38:21.562Z,99825.81
2023-04-25T06:43:18.016Z,99825.16
2023-04-25T06:48:14.366Z,99827.81
2023-04-25T06:53:12.485Z,99830.06
2023-04-25T06:58:09.099Z,99833.53
2023-04-25T07:03:05.619Z,99838.19
2023-04-25T07:08:02.358Z,99846.84
2023-04-25T07:12:58.768Z,99848.66
2023-04-25T07:17:55.263Z,99841.44
2023-04-25T07:22:51.799Z,99855.88
2023-04-25T07:27:48.132Z,99860.84
2023-04-25T07:32:44.570Z,99859.44
2023-04-25T07:37:40.955Z,99857.13
2023-04-25T07:42:37.287Z,99861.84
2023-04-25T07:47:33.719Z,99870.56
2023-04-25T07:52:30.056Z,99873.16
2023-04-25T07:57:26.407Z,99869.38
2023-04-25T08:02:22.823Z,99886.28
2023-04-25T08:07:19.200Z,99886.69
2023-04-25T08:12:15.652Z,99888.09
2023-04-25T08:17:12.107Z,99900.84
2023-04-25T08:22:08.796Z,99894.34
2023-04-25T08:27:05.277Z,99908.06
2023-04-25T08:32:02.014Z,99914.69
2023-04-25T08:36:58.359Z,99932.13
2023-04-25T08:41:55.142Z,99930.25
2023-04-25T08:46:53.170Z,99940.44
2023-04-25T08:51:52.158Z,99944.75
2023-04-25T08:56:49.201Z,99947.06
2023-04-25T09:01:46.120Z,99955.00
2023-04-25T09:06:42.593Z,99962.22
2023-04-25T09:11:39.092Z,99968.91
2023-04-25T09:16:38.260Z,99968.59
2023-04-25T09:21:35.997Z,99985.19
2023-04-25T09:26:32.702Z,99986.84
2023-04-25T09:31:29.453Z,99995.53
2023-04-25T09:36:27.887Z,99999.44
2023-04-25T09:41:25.514Z,100003.44
2023-04-25T09:46:26.247Z,100000.28
2023-04-25T09:51:26.898Z,99999.47
2023-04-25T09:56:24.395Z,100007.03
2023-04-25T10:01:24.495Z,100003.19
2023-04-25T10:06:24.380Z,100022.78
2023-04-25T10:11:24.051Z,100024.19
2023-04-25T10:16:21.475Z,100037.00
2023-04-25T10:21:18.843Z,100048.94
2023-04-25T10:26:16.155Z,100047.22
2023-04-25T10:31:17.398Z,100043.22
2023-04-25T10:36:15.902Z,100042.09
2023-04-25T10:41:14.342Z,100050.22
2023-04-25T10:46:24.185Z,100044.22
2023-04-25T10:51:26.535Z,100045.94
2023-04-25T10:56:26.215Z,100039.53
2023-04-25T11:01:26.461Z,100036.03
2023-04-25T11:07:04.556Z,100036.25
2023-04-25T11:12:03.038Z,100039.34
2023-04-25T11:17:01.172Z,100048.00
2023-04-25T11:22:01.942Z,100039.53
2023-04-25T11:27:05.519Z,100027.69
2023-04-25T11:32:03.106Z,100036.22
2023-04-25T11:37:01.104Z,100031.16
2023-04-25T11:41:57.523Z,100038.06
2023-04-25T11:46:53.916Z,100052.78
2023-04-25T11:51:50.483Z,100058.75
2023-04-25T11:56:47.688Z,100080.44
2023-04-25T12:01:50.089Z,100089.78
2023-04-25T12:06:51.556Z,100092.13
2023-04-25T12:11:49.957Z,100090.19
2023-04-25T12:16:47.852Z,100100.63
2023-04-25T12:21:57.377Z,100102.84
2023-04-25T12:27:05.224Z,100106.19
2023-04-25T12:32:02.754Z,100090.34
2023-04-25T12:36:59.102Z,100099.13
2023-04-25T12:41:55.425Z,100081.66
2023-04-25T12:46:52.012Z,100063.00
2023-04-25T12:51:48.465Z,100078.88
2023-04-25T12:56:45.104Z,100073.19
2023-04-25T13:01:41.627Z,100078.03
2023-04-25T13:06:38.264Z,100073.78
2023-04-25T13:11:34.688Z,100078.63
2023-04-25T13:16:31.600Z,100093.50
2023-04-25T13:21:31.888Z,100124.50
2023-04-25T13:26:28.320Z,100129.75
2023-04-25T13:31:26.140Z,100128.75
2023-04-25T13:36:22.505Z,100119.34
2023-04-25T13:41:19.745Z,100128.97
2023-04-25T13:46:35.321Z,100128.25
2023-04-25T13:51:33.355Z,100138.69
2023-04-25T13:56:29.661Z,100131.47
2023-04-25T14:01:26.826Z,100111.25
2023-04-25T14:06:24.855Z,100126.19
2023-04-25T14:11:21.195Z,100121.50
2023-04-25T14:16:17.917Z,100122.97
2023-04-25T14:21:14.386Z,100118.19
2023-04-25T14:26:13.472Z,100116.19
2023-04-25T14:31:10.092Z,100125.91
2023-04-25T14:36:07.529Z,100113.94
2023-04-25T14:41:04.413Z,100125.00
2023-04-25T14:46:00.892Z,100141.16
2023-04-25T14:50:57.671Z,100158.34
2023-04-25T14:55:54.890Z,100156.66
2023-04-25T15:00:51.726Z,100159.91
2023-04-25T15:05:48.599Z,100162.13
2023-04-25T15:10:46.243Z,100162.75
2023-04-25T15:15:42.609Z,100166.34
2023-04-25T15:20:38.986Z,100171.34
2023-04-25T15:25:35.434Z,100165.19
2023-04-25T15:30:31.800Z,100187.84
2023-04-25T15:35:28.214Z,100190.13
2023-04-25T15:40:24.630Z,100195.03
2023-04-25T15:45:24.154Z,100201.09
2023-04-25T15:50:21.104Z,100201.59
2023-04-25T15:55:19.511Z,100208.97
2023-04-25T16:00:17.898Z,100207.06
2023-04-25T16:05:15.456Z,100203.47
2023-04-25T16:10:12.915Z,100205.38
2023-04-25T16:15:09.556Z,100213.38
2023-04-25T16:20:10.323Z,100214.16
2023-04-25T16:25:08.069Z,100216.31
2023-04-25T16:30:09.295Z,100209.28
2023-04-25T16:35:06.201Z,100216.41
2023-04-25T16:40:02.616Z,100224.13
2023-04-25T16:44:58.942Z,100222.81
2023-04-25T16:49:55.336Z,100233.38
2023-04-25T16:54:51.673Z,100238.44
2023-04-25T16:59:48.114Z,100219.72
2023-04-25T17:04:44.453Z,100216.53
2023-04-25T17:09:40.934Z,100232.41
2023-04-25T17:14:37.332Z,100228.25
2023-04-25T17:19:33.634Z,100237.97
2023-04-25T17:24:30.105Z,100236.56
2023-04-25T17:29:27.845Z,100243.19
2023-04-25T17:34:24.146Z,100235.44
2023-04-25T17:39:20.460Z,100245.38
2023-04-25T17:44:16.784Z,100261.56
2023-04-25T17:49:13.144Z,100257.59
2023-04-25T17:54:09.794Z,100267.75
2023-04-25T17:59:07.037Z,100266.16
2023-04-25T18:04:04.228Z,100268.06
2023-04-25T18:09:01.814Z,100272.59
2023-04-25T18:13:58.382Z,100287.09
2023-04-25T18:18:55.060Z,100285.41
2023-04-25T18:23:51.606Z,100299.94
2023-04-25T18:28:48.146Z,100310.13
2023-04-25T18:33:44.543Z,100299.41
2023-04-25T18:38:40.945Z,100317.69
2023-04-25T18:43:37.260Z,100318.16
2023-04-25T18:48:33.597Z,100329.97
2023-04-25T18:53:29.937Z,100328.66
2023-04-25T18:58:26.380Z,100337.69
2023-04-25T19:03:22.963Z,100346.06
2023-04-25T19:08:20.634Z,100358.50
2023-04-25T19:13:16.964Z,100362.44
2023-04-25T19:18:14.793Z,100367.41
2023-04-25T19:23:11.116Z,100374.06
2023-04-25T19:28:08.633Z,100381.09
2023-04-25T19:33:05.006Z,100376.16
2023-04-25T19:38:01.682Z,100377.47
2023-04-25T19:42:58.139Z,100380.25
2023-04-25T19:47:54.647Z,100375.75
2023-04-25T19:52:52.371Z,100379.41
2023-04-25T19:57:48.992Z,100382.75
2023-04-25T20:02:46.101Z,100388.75
2023-04-25T20:07:42.638Z,100388.75
2023-04-25T20:12:40.336Z,100399.31
2023-04-25T20:17:38.443Z,100409.44
2023-04-25T20:22:38.777Z,100404.59
2023-04-25T20:27:37.799Z,100408.03
2023-04-25T20:32:35.204Z,100408.53
2023-04-25T20:37:31.770Z,100411.66
2023-04-25T20:42:28.153Z,100404.34
2023-04-25T20:47:24.485Z,100409.91
2023-04-25T20:52:20.920Z,100411.34
2023-04-25T20:57:17.612Z,100411.84
2023-04-25T21:02:16.893Z,100411.66
2023-04-25T21:07:13.794Z,100422.97
2023-04-25T21:12:10.349Z,100415.16
2023-04-25T21:17:06.870Z,100421.56
2023-04-25T21:22:03.731Z,100420.59
2023-04-25T21:27:01.030Z,100421.91
2023-04-25T21:31:57.437Z,100417.09
2023-04-25T21:36:53.769Z,100421.16
2023-04-25T21:41:50.124Z,100421.44
2023-04-25T21:46:46.482Z,100418.66
2023-04-25T21:51:42.928Z,100420.16
2023-04-25T21:56:39.292Z,100426.13
2023-04-25T22:01:36.806Z,100432.94
2023-04-25T22:06:33.188Z,100434.97
2023-04-25T22:11:29.582Z,100436.09
2023-04-25T22:16:25.993Z,100438.16
2023-04-25T22:21:24.276Z,100440.09
2023-04-25T22:26:20.722Z,100443.34
2023-04-25T22:31:17.203Z,100453.28
2023-04-25T22:36:13.712Z,100466.78
2023-04-25T22:41:10.319Z,100474.31
2023-04-25T22:46:15.304Z,100471.22
2023-04-25T22:51:12.616Z,100483.25
2023-04-25T22:56:10.028Z,100486.13
2023-04-25T23:01:07.259Z,100485.22
2023-04-25T23:06:03.844Z,100487.84
2023-04-25T23:11:00.182Z,100490.97
2023-04-25T23:15:57.122Z,100490.41
2023-04-25T23:20:53.461Z,100487.69
2023-04-25T23:25:49.815Z,100496.03
2023-04-25T23:30:46.195Z,100496.41
2023-04-25T23:35:42.588Z,100498.25
2023-04-25T23:40:38.950Z,100502.25
2023-04-25T23:45:35.757Z,100514.06
2023-04-25T23:50:32.174Z,100508.88
2023-04-25T23:55:28.532Z,100513.47
